Time;durP1;ratioP1;P1;durP2;ratioP2;P2;SDS_P1;SDS_P2;PMS_P1;PMS_P2;Temp;Humidity;BMP_temperature;BMP_pressure;BME280_temperature;BME280_humidity;BME280_pressure;Samples;Min_cycle;Max_cycle;Signal;HPM_P1;HPM_P2
2022/09/14 00:01:10;;;;;;;4.03;2.37;;;;;;;14.85;64.60;99922.61;1465799;87;21486;-82
2022/09/14 00:03:37;;;;;;;4.03;2.47;;;;;;;14.85;64.36;99917.28;1488413;86;21456;-82
2022/09/14 00:06:08;;;;;;;6.40;2.50;;;;;;;14.84;64.27;99912.95;1468796;87;21500;-81
2022/09/14 00:08:35;;;;;;;3.03;2.60;;;;;;;14.83;64.24;99913.16;1482463;88;21628;-82
2022/09/14 00:11:12;;;;;;;6.40;2.80;;;;;;;14.81;64.27;99909.84;1480655;87;21411;-81
2022/09/14 00:13:41;;;;;;;3.07;2.30;;;;;;;14.80;64.17;99914.34;1482984;88;21419;-83
2022/09/14 00:16:13;;;;;;;3.90;2.50;;;;;;;14.80;64.21;99909.02;1513084;86;21434;-83
2022/09/14 00:18:39;;;;;;;4.13;2.40;;;;;;;14.81;64.24;99909.33;1454369;89;22509;-82
2022/09/14 00:21:08;;;;;;;5.70;2.67;;;;;;;14.82;64.07;99915.00;1445124;89;21508;-82
2022/09/14 00:23:38;;;;;;;6.37;2.23;;;;;;;14.82;64.02;99916.33;1478512;86;21560;-82
2022/09/14 00:26:12;;;;;;;5.80;2.17;;;;;;;14.82;64.00;99916.33;1479279;86;21558;-82
2022/09/14 00:28:42;;;;;;;3.47;2.50;;;;;;;14.84;63.97;99918.79;1474801;86;21441;-81
2022/09/14 00:31:10;;;;;;;5.12;2.37;;;;;;;14.84;63.88;99915.61;1477302;86;22314;-81
2022/09/14 00:33:37;;;;;;;7.13;2.40;;;;;;;14.83;63.98;99905.98;1475917;87;21618;-81
2022/09/14 00:36:07;;;;;;;5.53;3.07;;;;;;;14.83;64.33;99910.48;1488019;87;21507;-81
2022/09/14 00:38:34;;;;;;;3.70;2.37;;;;;;;14.86;64.53;99920.77;1482056;88;21580;-81
2022/09/14 00:41:02;;;;;;;5.03;2.40;;;;;;;14.88;64.69;99907.58;1480123;88;21411;-83
2022/09/14 00:43:29;;;;;;;4.13;2.27;;;;;;;14.91;64.48;99910.37;1481037;88;21603;-82
2022/09/14 00:45:55;;;;;;;4.33;2.47;;;;;;;14.96;64.23;99904.47;1480749;87;22476;-82
2022/09/14 00:48:24;;;;;;;3.20;2.07;;;;;;;14.97;64.12;99898.14;1486255;87;21441;-81
2022/09/14 00:50:52;;;;;;;6.00;3.03;;;;;;;14.98;64.02;99902.45;1477292;87;22357;-82
2022/09/14 00:53:19;;;;;;;3.87;2.63;;;;;;;14.98;63.96;99902.45;1486715;88;21485;-82
2022/09/14 00:55:45;;;;;;;4.10;2.57;;;;;;;14.96;63.99;99892.48;1477970;88;21537;-82
2022/09/14 00:58:11;;;;;;;7.77;2.20;;;;;;;14.94;63.81;99886.02;1431828;91;22382;-82
2022/09/14 01:00:37;;;;;;;6.90;2.60;;;;;;;14.95;63.87;99894.83;1476474;86;21523;-83
2022/09/14 01:03:04;;;;;;;6.43;2.70;;;;;;;14.93;63.95;99891.52;1483682;88;21574;-79
2022/09/14 01:05:48;;;;;;;10.20;3.30;;;;;;;14.93;63.96;99892.34;1482019;88;21470;-81
2022/09/14 01:08:31;;;;;;;4.63;2.43;;;;;;;14.94;63.99;99891.86;1474450;86;21434;-81
2022/09/14 01:11:44;;;;;;;2.83;2.23;;;;;;;14.94;64.10;99893.20;1478385;88;21455;-80
2022/09/14 01:14:34;;;;;;;4.17;2.50;;;;;;;14.93;64.18;99896.85;1483257;88;21463;-80
2022/09/14 01:17:12;;;;;;;6.70;2.50;;;;;;;14.87;64.23;99893.95;1438156;91;21510;-81
2022/09/14 01:20:20;;;;;;;3.60;2.60;;;;;;;14.83;64.32;99889.17;1479115;88;21559;-81
2022/09/14 01:23:21;;;;;;;4.40;2.40;;;;;;;14.80;64.86;99893.04;1488336;86;22291;-80
2022/09/14 01:26:08;;;;;;;4.78;2.67;;;;;;;14.78;65.34;99891.06;1480914;86;21580;-80
2022/09/14 01:28:49;;;;;;;3.20;2.30;;;;;;;14.78;65.17;99903.56;1493137;86;21580;-81
2022/09/14 01:31:30;;;;;;;3.87;2.27;;;;;;;14.78;65.04;99895.56;1473968;88;21499;-80
2022/09/14 01:34:07;;;;;;;5.80;2.70;;;;;;;14.76;65.08;99899.77;1477947;88;21982;-82
2022/09/14 01:36:37;;;;;;;4.93;2.60;;;;;;;14.74;65.12;99896.45;1472404;88;21374;-79
2022/09/14 01:39:05;;;;;;;5.78;2.47;;;;;;;14.71;65.26;99891.51;1477412;88;21471;-80
2022/09/14 01:41:33;;;;;;;4.00;2.57;;;;;;;14.69;65.39;99885.53;1486929;88;22545;-82
2022/09/14 01:44:05;;;;;;;7.17;3.17;;;;;;;14.66;65.40;99886.73;1470122;88;22428;-81
2022/09/14 01:46:37;;;;;;;7.23;2.87;;;;;;;14.64;65.51;99890.59;1475677;87;21581;-82
2022/09/14 01:49:27;;;;;;;3.37;2.70;;;;;;;14.61;65.54;99887.79;1474773;88;21462;-80
2022/09/14 01:52:08;;;;;;;8.13;2.85;;;;;;;14.62;65.97;99885.98;1479090;87;21699;-82
2022/09/14 01:54:44;;;;;;;;;;;;;;;14.64;66.26;99882.59;1457548;86;21508;-83
2022/09/14 01:57:31;;;;;;;5.57;2.57;;;;;;;14.65;66.29;99881.61;1470878;87;20379;-81
2022/09/14 02:00:03;;;;;;;3.53;2.43;;;;;;;14.67;66.32;99875.56;1480793;88;21536;-80
2022/09/14 02:02:38;;;;;;;4.30;2.43;;;;;;;14.70;66.18;99875.19;1475371;88;21558;-81
2022/09/14 02:05:16;;;;;;;4.60;2.40;;;;;;;14.70;66.03;99875.19;1473423;88;21509;-80
2022/09/14 02:07:42;;;;;;;3.33;2.57;;;;;;;14.69;65.94;99865.56;1470546;88;21463;-82
2022/09/14 02:10:12;;;;;;;7.00;2.90;;;;;;;14.69;65.79;99864.22;1458288;88;21478;-83
2022/09/14 02:12:40;;;;;;;4.83;2.63;;;;;;;14.66;66.03;99868.09;1461010;88;21493;-82
2022/09/14 02:15:10;;;;;;;3.63;2.47;;;;;;;14.64;65.85;99871.95;1461159;88;21560;-82
2022/09/14 02:17:37;;;;;;;8.33;3.22;;;;;;;14.62;65.85;99866.00;1457619;89;22403;-82
2022/09/14 02:20:08;;;;;;;4.67;2.70;;;;;;;14.60;65.95;99864.84;1459442;89;21412;-82
2022/09/14 02:22:34;;;;;;;5.90;2.50;;;;;;;14.59;65.87;99863.72;1455339;89;22106;-82
2022/09/14 02:25:01;;;;;;;3.43;2.40;;;;;;;14.58;65.91;99862.05;1453367;88;21500;-83
2022/09/14 02:27:27;;;;;;;5.27;2.53;;;;;;;14.57;66.28;99856.41;1469173;88;21478;-83
2022/09/14 02:29:54;;;;;;;6.60;3.13;;;;;;;14.55;65.93;99861.91;1474329;88;22387;-82
2022/09/14 02:32:58;;;;;;;5.87;2.53;;;;;;;14.56;66.47;99866.76;1467489;88;21671;-83
2022/09/14 02:35:48;;;;;;;4.17;2.00;;;;;;;14.57;66.66;99868.40;1450791;88;21427;-82
2022/09/14 02:38:37;;;;;;;3.87;2.17;;;;;;;14.59;66.64;99857.88;1460617;88;21442;-83
2022/09/14 02:41:17;;;;;;;4.73;2.27;;;;;;;14.63;66.33;99860.47;1456804;88;21590;-83
2022/09/14 02:43:50;;;;;;;;;;;;;;;14.66;66.09;99859.28;1463470;88;21627;-83
2022/09/14 02:46:46;;;;;;;5.27;1.97;;;;;;;14.65;66.08;99860.30;1480544;88;20320;-83
2022/09/14 02:49:32;;;;;;;4.23;2.60;;;;;;;14.63;65.77;99856.48;1467991;88;22365;-83
2022/09/14 02:52:18;;;;;;;5.53;2.70;;;;;;;14.59;65.80;99851.73;1460282;89;21464;-82
2022/09/14 02:54:59;;;;;;;5.73;2.40;;;;;;;14.52;65.91;99854.30;1471771;88;21449;-81
2022/09/14 02:57:25;;;;;;;3.87;3.00;;;;;;;14.46;65.99;99851.02;1467855;89;21484;-80
2022/09/14 02:59:54;;;;;;;5.50;2.60;;;;;;;14.40;66.00;99856.59;1449812;89;22232;-81
2022/09/14 03:02:21;;;;;;;4.00;2.30;;;;;;;14.34;66.24;99854.67;1459111;89;21633;-81
2022/09/14 03:04:47;;;;;;;5.93;2.50;;;;;;;14.30;66.34;99853.41;1462230;88;21973;-81
2022/09/14 03:07:13;;;;;;;3.20;2.37;;;;;;;14.26;66.88;99853.44;1473918;88;21552;-81
2022/09/14 03:09:40;;;;;;;3.50;2.70;;;;;;;14.24;67.21;99847.47;1469013;87;22366;-83
2022/09/14 03:12:06;;;;;;;4.63;2.50;;;;;;;14.22;67.55;99850.84;1474347;87;21419;-82
2022/09/14 03:14:32;;;;;;;8.47;2.33;;;;;;;14.18;68.13;99848.22;1473428;87;21449;-82
2022/09/14 03:16:58;;;;;;;5.40;2.30;;;;;;;14.19;67.56;99849.88;1431113;91;22214;-82
2022/09/14 03:19:24;;;;;;;4.93;2.23;;;;;;;14.16;67.57;99843.09;1482437;87;21427;-83
2022/09/14 03:21:50;;;;;;;6.53;3.53;;;;;;;14.14;67.61;99852.27;1478849;88;22366;-82
2022/09/14 03:24:16;;;;;;;7.23;3.47;;;;;;;14.09;67.64;99847.48;1478059;87;21537;-82
2022/09/14 03:26:42;;;;;;;3.87;2.50;;;;;;;14.07;67.55;99854.85;1432140;90;22405;-81
2022/09/14 03:29:09;;;;;;;4.53;2.67;;;;;;;14.02;67.71;99859.07;1484261;88;21448;-82
2022/09/14 03:31:36;;;;;;;6.43;2.90;;;;;;;13.96;67.94;99857.46;1478998;87;21486;-80
2022/09/14 03:34:02;;;;;;;6.10;2.27;;;;;;;13.95;68.32;99857.63;1473183;88;21530;-80
2022/09/14 03:36:30;;;;;;;2.87;2.40;;;;;;;13.93;68.52;99851.17;1486455;87;21398;-84
2022/09/14 03:39:00;;;;;;;4.20;2.83;;;;;;;13.94;68.92;99846.67;1468238;88;21530;-80
2022/09/14 03:41:26;;;;;;;3.85;2.95;;;;;;;13.93;68.79;99841.87;1470338;88;21486;-80
2022/09/14 03:43:53;;;;;;;5.20;3.97;;;;;;;13.93;68.80;99845.03;1479530;87;21420;-80
2022/09/14 03:46:23;;;;;;;8.53;2.77;;;;;;;13.91;68.62;99841.21;1425739;90;21524;-80
2022/09/14 03:48:49;;;;;;;2.95;2.40;;;;;;;13.89;68.65;99845.06;1481276;87;21455;-80
2022/09/14 03:51:15;;;;;;;4.53;2.70;;;;;;;13.86;68.62;99847.58;1437445;90;21504;-80
2022/09/14 03:53:44;;;;;;;3.30;2.67;;;;;;;13.83;68.82;99841.30;1421300;91;21496;-81
2022/09/14 03:56:15;;;;;;;5.90;2.80;;;;;;;13.79;68.93;99841.36;1430523;90;21494;-78
2022/09/14 03:58:43;;;;;;;6.70;3.33;;;;;;;13.74;69.02;99841.07;1477956;88;21426;-79
2022/09/14 04:01:14;;;;;;;5.60;2.70;;;;;;;13.73;69.24;99850.07;1465525;88;21441;-79
2022/09/14 04:03:41;;;;;;;5.80;2.67;;;;;;;13.71;69.86;99857.39;1468594;88;22306;-80
2022/09/14 04:06:08;;;;;;;14.27;3.37;;;;;;;13.71;70.09;99862.71;1486755;86;21537;-79
2022/09/14 04:08:38;;;;;;;4.60;2.53;;;;;;;13.73;70.10;99852.73;1478389;87;21551;-80
2022/09/14 04:11:21;;;;;;;4.03;2.73;;;;;;;13.73;70.05;99850.07;1437253;89;21614;-80
2022/09/14 04:13:48;;;;;;;4.87;2.73;;;;;;;13.74;69.84;99847.72;1474455;88;21500;-79
2022/09/14 04:16:15;;;;;;;7.33;2.70;;;;;;;13.75;69.98;99842.71;1479502;87;21507;-79
2022/09/14 04:18:42;;;;;;;9.40;2.80;;;;;;;13.72;70.09;99843.08;1484468;86;21478;-79
2022/09/14 04:21:18;;;;;;;3.60;2.60;;;;;;;13.71;70.26;99845.42;1492520;86;22350;-81
2022/09/14 04:23:45;;;;;;;5.17;2.50;;;;;;;13.69;70.52;99848.77;1474902;86;21432;-80
2022/09/14 04:26:16;;;;;;;4.00;3.60;;;;;;;13.69;70.89;99862.06;1488183;88;21514;-80
2022/09/14 04:28:42;;;;;;;3.87;2.05;;;;;;;13.72;71.20;99859.89;1480693;88;22372;-81
2022/09/14 04:31:10;;;;;;;2.43;1.87;;;;;;;13.78;71.52;99859.63;1460676;88;21441;-80
2022/09/14 04:33:39;;;;;;;6.87;2.80;;;;;;;13.83;71.33;99856.44;1480723;86;21396;-81
2022/09/14 04:36:12;;;;;;;5.33;2.63;;;;;;;13.89;71.04;99848.55;1475549;88;21417;-79
2022/09/14 04:38:41;;;;;;;4.30;2.30;;;;;;;13.98;70.96;99843.95;1484433;88;22410;-80
2022/09/14 04:41:14;;;;;;;3.27;2.50;;;;;;;14.07;70.76;99842.03;1482735;86;21544;-84
2022/09/14 04:43:41;;;;;;;3.80;2.83;;;;;;;14.12;70.90;99839.64;1489682;86;21462;-95
2022/09/14 04:46:21;;;;;;;4.37;3.10;;;;;;;14.20;70.58;99832.89;1475433;86;21485;-92
2022/09/14 04:48:48;;;;;;;8.50;2.50;;;;;;;14.22;70.42;99840.20;1456123;89;21496;-91
2022/09/14 04:51:19;;;;;;;3.83;2.77;;;;;;;14.21;70.49;99838.05;1420040;91;22322;-92
2022/09/14 04:53:49;;;;;;;8.73;2.40;;;;;;;14.23;70.73;99836.52;1478051;88;21420;-94
2022/09/14 04:56:16;;;;;;;3.77;2.67;;;;;;;14.29;71.02;99851.73;1487954;86;21375;-94
2022/09/14 04:58:46;;;;;;;3.93;2.13;;;;;;;14.34;70.99;99847.20;1472691;86;21454;-94
2022/09/14 05:01:17;;;;;;;4.10;3.02;;;;;;;14.36;70.56;99846.52;1476876;88;21396;-93
2022/09/14 05:03:45;;;;;;;4.60;2.37;;;;;;;14.39;70.21;99853.62;1492825;86;21478;-90
2022/09/14 05:06:15;;;;;;;4.67;2.50;;;;;;;14.40;69.99;99852.59;1481598;86;22257;-92
2022/09/14 05:08:42;;;;;;;3.42;2.50;;;;;;;14.41;69.87;99853.41;1476569;86;21455;-92
2022/09/14 05:11:12;;;;;;;4.90;2.83;;;;;;;14.42;69.92;99846.59;1472492;87;22382;-94
2022/09/14 05:13:38;;;;;;;2.08;1.87;;;;;;;14.42;69.85;99847.92;1454513;87;21544;-91
2022/09/14 05:16:07;;;;;;;4.53;2.50;;;;;;;14.41;69.90;99846.28;1480320;88;21360;-89
2022/09/14 05:18:34;;;;;;;10.37;3.00;;;;;;;14.40;69.69;99851.27;1471800;88;22528;-91
2022/09/14 05:21:04;;;;;;;3.07;2.07;;;;;;;14.41;69.78;99859.59;1476031;88;21457;-90
2022/09/14 05:23:30;;;;;;;4.93;2.37;;;;;;;14.42;70.06;99851.91;1471151;87;21560;-91
2022/09/14 05:25:58;;;;;;;4.87;2.73;;;;;;;14.47;70.24;99858.50;1475146;87;22422;-85
2022/09/14 05:28:25;;;;;;;3.13;2.43;;;;;;;14.49;70.31;99855.16;1474476;88;21339;-89
2022/09/14 05:30:53;;;;;;;3.97;2.47;;;;;;;14.55;70.12;99845.11;1473505;88;22017;-91
2022/09/14 05:33:19;;;;;;;3.73;2.10;;;;;;;14.58;69.87;99836.75;1474629;87;21486;-88
2022/09/14 05:35:47;;;;;;;4.67;2.63;;;;;;;14.63;69.70;99834.36;1480424;87;22028;-88
2022/09/14 05:38:14;;;;;;;8.77;2.87;;;;;;;14.61;69.73;99845.18;1480961;88;21597;-88
2022/09/14 05:40:41;;;;;;;7.30;2.43;;;;;;;14.62;69.68;99843.37;1480770;87;21545;-86
2022/09/14 05:43:08;;;;;;;4.90;2.50;;;;;;;14.69;69.59;99840.25;1475303;87;22352;-86
2022/09/14 05:45:34;;;;;;;4.87;2.40;;;;;;;14.79;69.54;99845.30;1473575;87;22314;-87
2022/09/14 05:48:07;;;;;;;3.83;2.20;;;;;;;14.89;69.42;99845.28;1467623;88;21523;-86
2022/09/14 05:50:32;;;;;;;6.25;3.42;;;;;;;14.96;69.27;99841.37;1477770;87;22373;-87
2022/09/14 05:52:59;;;;;;;3.30;2.20;;;;;;;15.00;69.00;99831.14;1475147;88;21471;-84
2022/09/14 05:55:26;;;;;;;2.87;2.13;;;;;;;15.05;69.12;99822.08;1480124;87;22458;-84
2022/09/14 05:57:52;;;;;;;9.63;2.43;;;;;;;15.07;69.19;99823.50;1469684;87;21525;-84
2022/09/14 06:00:20;;;;;;;5.17;2.03;;;;;;;15.14;68.93;99823.59;1467630;88;21581;-87
2022/09/14 06:02:48;;;;;;;6.23;2.70;;;;;;;15.20;68.64;99825.48;1479582;88;21390;-84
2022/09/14 06:05:16;;;;;;;7.53;2.40;;;;;;;15.26;68.43;99810.05;1473549;88;21449;-84
2022/09/14 06:07:43;;;;;;;6.03;2.63;;;;;;;15.33;68.11;99813.61;1470351;88;21714;-85
2022/09/14 06:10:10;;;;;;;2.90;2.23;;;;;;;15.32;67.77;99817.27;1469177;88;21420;-85
2022/09/14 06:12:37;;;;;;;5.30;2.40;;;;;;;15.34;67.59;99817.09;1479511;88;21478;-84
2022/09/14 06:15:04;;;;;;;2.93;1.83;;;;;;;15.33;67.61;99824.27;1472552;88;21442;-83
2022/09/14 06:17:33;;;;;;;2.90;2.07;;;;;;;15.46;67.70;99836.05;1473732;87;21398;-83
2022/09/14 06:19:59;;;;;;;4.43;2.60;;;;;;;15.66;67.70;99829.00;1478424;87;21456;-84
2022/09/14 06:22:25;;;;;;;2.70;2.50;;;;;;;15.92;67.39;99830.22;1480512;87;22255;-83
2022/09/14 06:24:51;;;;;;;3.33;2.20;;;;;;;16.12;66.37;99828.47;1468681;88;21390;-85
2022/09/14 06:27:17;;;;;;;2.67;2.13;;;;;;;16.27;65.56;99827.52;1471939;87;21463;-85
2022/09/14 06:29:43;;;;;;;3.73;2.87;;;;;;;16.36;64.92;99835.66;1474069;87;21404;-83
2022/09/14 06:32:09;;;;;;;4.90;2.40;;;;;;;16.47;64.33;99847.10;1472021;87;21360;-85
2022/09/14 06:34:35;;;;;;;5.30;2.17;;;;;;;16.60;64.55;99848.49;1478093;87;21566;-85
2022/09/14 06:37:01;;;;;;;6.30;2.37;;;;;;;16.76;64.04;99841.13;1470361;88;22526;-85
2022/09/14 06:39:27;;;;;;;10.27;1.93;;;;;;;16.91;64.13;99848.48;1473795;88;22542;-85
2022/09/14 06:41:53;;;;;;;4.67;1.77;;;;;;;17.03;63.68;99850.03;1468788;87;21441;-85
2022/09/14 06:44:19;;;;;;;6.10;2.60;;;;;;;17.13;62.88;99853.97;1477977;87;21463;-85
2022/09/14 06:46:45;;;;;;;13.57;3.17;;;;;;;17.21;61.99;99858.81;1483023;87;21556;-85
2022/09/14 06:49:19;;;;;;;10.80;2.43;;;;;;;17.29;62.21;99857.25;1482511;87;21434;-84
2022/09/14 06:51:45;;;;;;;;;;;;;;;17.34;62.07;99860.14;1475453;87;21545;-85
2022/09/14 06:54:14;;;;;;;7.10;2.57;;;;;;;17.34;61.80;99861.48;1467070;88;20267;-84
2022/09/14 06:56:42;;;;;;;6.60;3.13;;;;;;;17.32;61.82;99863.53;1482845;88;21442;-85
2022/09/14 06:59:10;;;;;;;6.47;2.90;;;;;;;17.27;61.20;99858.00;1478476;87;21538;-84
2022/09/14 07:01:37;;;;;;;3.67;2.20;;;;;;;17.26;61.54;99853.16;1479519;88;21681;-85
2022/09/14 07:04:05;;;;;;;15.07;2.57;;;;;;;17.28;61.92;99846.26;1479245;87;21449;-84
2022/09/14 07:06:39;;;;;;;6.93;2.67;;;;;;;17.30;61.94;99838.86;1481246;87;21493;-85
2022/09/14 07:09:05;;;;;;;5.10;2.33;;;;;;;17.34;61.92;99838.75;1463766;88;21446;-84
2022/09/14 07:11:32;;;;;;;4.80;1.90;;;;;;;17.39;61.90;99834.13;1470582;87;22403;-85
2022/09/14 07:13:59;;;;;;;6.30;1.87;;;;;;;17.46;61.96;99829.58;1470801;87;22322;-84
2022/09/14 07:16:26;;;;;;;6.20;2.40;;;;;;;17.51;61.80;99827.11;1473100;88;21510;-84
2022/09/14 07:18:59;;;;;;;9.83;2.03;;;;;;;17.56;61.94;99833.49;1476944;88;21530;-84
2022/09/14 07:21:25;;;;;;;5.00;2.23;;;;;;;17.60;61.60;99835.23;1471795;87;21492;-84
2022/09/14 07:23:52;;;;;;;4.30;2.20;;;;;;;17.62;61.68;99840.39;1465887;88;22434;-84
2022/09/14 07:26:26;;;;;;;5.80;2.13;;;;;;;17.62;61.47;99839.05;1474594;88;21472;-84
2022/09/14 07:29:00;;;;;;;6.97;2.47;;;;;;;17.65;61.35;99835.95;1473262;87;21428;-85
2022/09/14 07:31:36;;;;;;;9.03;2.33;;;;;;;17.66;61.06;99832.23;1468527;88;21560;-84
2022/09/14 07:34:04;;;;;;;4.23;2.00;;;;;;;17.69;61.16;99831.30;1476642;88;21515;-83
2022/09/14 07:36:33;;;;;;;6.60;2.37;;;;;;;17.69;60.34;99834.50;1478396;88;21463;-85
2022/09/14 07:38:59;;;;;;;10.10;3.00;;;;;;;17.71;60.60;99831.11;1465676;88;21965;-85
2022/09/14 07:41:29;;;;;;;10.30;2.00;;;;;;;17.72;60.46;99836.75;1477195;87;21449;-84
2022/09/14 07:43:59;;;;;;;5.40;1.87;;;;;;;17.76;60.67;99844.17;1470984;87;21441;-85
2022/09/14 07:46:27;;;;;;;6.12;2.65;;;;;;;17.77;60.03;99845.80;1476581;88;21382;-84
2022/09/14 07:48:59;;;;;;;6.03;2.27;;;;;;;17.77;59.86;99844.98;1467791;88;21500;-85
2022/09/14 07:51:27;;;;;;;16.50;2.57;;;;;;;17.78;59.81;99843.97;1477725;88;21574;-85
2022/09/14 07:53:53;;;;;;;13.27;2.27;;;;;;;17.80;59.88;99848.61;1478998;88;21434;-84
2022/09/14 07:56:21;;;;;;;4.00;2.10;;;;;;;17.82;60.07;99846.56;1468531;87;21398;-85
2022/09/14 07:58:50;;;;;;;2.40;2.10;;;;;;;17.84;60.01;99845.84;1471931;88;22447;-85
2022/09/14 08:01:16;;;;;;;4.60;2.53;;;;;;;17.83;60.06;99845.52;1477160;87;21500;-85
2022/09/14 08:03:45;;;;;;;3.27;2.00;;;;;;;17.83;59.88;99857.56;1466550;87;21439;-84
2022/09/14 08:06:15;;;;;;;5.10;2.67;;;;;;;17.78;60.06;99850.67;1472011;88;22358;-85
2022/09/14 08:08:45;;;;;;;3.72;2.12;;;;;;;17.76;59.86;99852.20;1481881;88;21605;-83
2022/09/14 08:11:15;;;;;;;7.30;2.30;;;;;;;17.73;59.81;99851.80;1466222;88;21692;-84
2022/09/14 08:13:46;;;;;;;5.60;2.30;;;;;;;17.71;60.07;99855.19;1479910;88;21543;-84
2022/09/14 08:16:14;;;;;;;6.77;2.20;;;;;;;17.69;60.03;99851.89;1474140;87;21515;-85
2022/09/14 08:18:40;;;;;;;10.63;2.20;;;;;;;17.69;60.17;99849.22;1466206;88;22338;-84
2022/09/14 08:21:10;;;;;;;7.87;1.90;;;;;;;17.68;60.24;99852.41;1481661;87;21478;-85
2022/09/14 08:23:38;;;;;;;3.87;1.90;;;;;;;17.69;60.39;99847.36;1483108;88;21434;-84
2022/09/14 08:26:12;;;;;;;6.23;2.53;;;;;;;17.70;60.50;99845.53;1476587;87;21471;-85
2022/09/14 08:28:39;;;;;;;8.77;3.13;;;;;;;17.72;60.44;99847.45;1477267;88;22461;-85
2022/09/14 08:31:10;;;;;;;7.40;2.77;;;;;;;17.71;60.35;99835.94;1472191;87;21442;-84
2022/09/14 08:33:41;;;;;;;9.27;2.37;;;;;;;17.75;60.47;99826.97;1477771;88;21500;-84
2022/09/14 08:36:09;;;;;;;3.07;1.90;;;;;;;17.76;60.44;99832.64;1479379;88;21434;-86
2022/09/14 08:38:36;;;;;;;3.73;2.13;;;;;;;17.79;60.45;99830.40;1476050;87;21420;-84
2022/09/14 08:41:25;;;;;;;3.67;2.10;;;;;;;17.81;60.12;99825.67;1483754;88;21462;-85
2022/09/14 08:43:52;;;;;;;6.00;2.50;;;;;;;17.84;60.21;99836.97;1467519;88;21493;-85
2022/09/14 08:46:32;;;;;;;3.00;2.20;;;;;;;17.89;60.37;99827.27;1477101;88;21457;-85
2022/09/14 08:49:01;;;;;;;7.85;3.55;;;;;;;17.94;60.47;99832.83;1472266;87;21426;-83
2022/09/14 08:51:28;;;;;;;6.40;2.50;;;;;;;18.01;60.42;99822.94;1472338;88;21604;-86
2022/09/14 08:53:58;;;;;;;5.63;2.87;;;;;;;18.11;60.51;99834.53;1471915;87;22454;-85
2022/09/14 08:56:31;;;;;;;7.43;2.50;;;;;;;18.23;60.38;99828.00;1471143;88;21427;-84
2022/09/14 08:59:52;;;;;;;10.40;3.00;;;;;;;18.34;59.94;99816.63;1471954;87;22234;-86
2022/09/14 09:02:25;;;;;;;;;;;;;;;18.49;60.00;99817.68;1475765;87;21403;-85
2022/09/14 09:04:59;;;;;;;9.03;3.33;;;;;;;18.64;58.96;99814.70;1475942;87;20281;-84
2022/09/14 09:07:42;;;;;;;7.08;2.85;;;;;;;18.73;59.26;99813.44;1476142;88;21433;-84
2022/09/14 09:10:11;;;;;;;8.60;2.53;;;;;;;18.84;59.36;99816.77;1480566;87;22411;-86
2022/09/14 09:12:52;;;;;;;6.00;2.40;;;;;;;18.90;59.14;99817.28;1481694;87;22366;-85
2022/09/14 09:15:30;;;;;;;2.35;2.12;;;;;;;18.99;59.22;99802.23;1473935;88;21420;-84
2022/09/14 09:18:30;;;;;;;5.62;2.62;;;;;;;19.10;58.70;99791.66;1474390;87;21537;-84
2022/09/14 09:21:17;;;;;;;5.00;2.72;;;;;;;19.21;58.26;99798.15;1469117;87;22306;-84
2022/09/14 09:23:44;;;;;;;6.70;2.77;;;;;;;19.33;58.35;99798.25;1473371;88;21412;-84
2022/09/14 09:26:29;;;;;;;8.83;2.62;;;;;;;19.34;58.08;99796.70;1475477;88;21442;-84
2022/09/14 09:29:01;;;;;;;6.83;2.20;;;;;;;19.39;57.88;99795.53;1469928;87;22576;-84
2022/09/14 09:31:43;;;;;;;6.10;2.58;;;;;;;19.44;57.77;99804.77;1475768;88;21478;-84
2022/09/14 09:34:12;;;;;;;;;;;;;;;19.52;57.91;99793.75;1473064;88;21530;-84
2022/09/14 09:36:45;;;;;;;7.03;2.22;;;;;;;19.58;57.32;99794.20;1465393;88;20364;-84
2022/09/14 09:39:12;;;;;;;15.85;2.33;;;;;;;19.65;57.60;99796.81;1467293;87;21413;-84
2022/09/14 09:42:02;;;;;;;8.90;2.55;;;;;;;19.70;57.17;99783.58;1471061;88;21552;-84
2022/09/14 09:44:28;;;;;;;8.53;2.25;;;;;;;19.74;57.36;99785.61;1473589;87;22586;-83
2022/09/14 09:47:00;;;;;;;5.05;2.30;;;;;;;19.78;57.24;99785.97;1472411;88;21707;-84
2022/09/14 09:49:36;;;;;;;7.37;2.50;;;;;;;19.77;57.29;99782.47;1474822;88;22436;-85
2022/09/14 09:52:15;;;;;;;3.10;2.42;;;;;;;19.77;57.12;99783.81;1472617;88;21560;-85
2022/09/14 09:54:45;;;;;;;5.60;2.37;;;;;;;19.76;56.99;99786.71;1474595;88;21456;-86
2022/09/14 09:57:28;;;;;;;3.27;2.10;;;;;;;19.72;56.97;99782.31;1475323;88;21499;-86
2022/09/14 10:00:23;;;;;;;3.15;2.05;;;;;;;19.71;57.27;99789.23;1476980;88;21448;-85
2022/09/14 10:02:52;;;;;;;7.15;3.10;;;;;;;19.67;57.70;99788.87;1455650;88;21478;-85
2022/09/14 10:05:27;;;;;;;9.13;2.58;;;;;;;19.61;58.33;99795.09;1478378;88;21471;-85
2022/09/14 10:08:07;;;;;;;4.72;2.65;;;;;;;19.56;59.10;99797.62;1467993;87;21568;-85
2022/09/14 10:10:39;;;;;;;7.55;3.42;;;;;;;19.54;59.57;99803.75;1478293;88;21486;-84
2022/09/14 10:13:26;;;;;;;16.62;2.70;;;;;;;19.51;60.95;99808.22;1472885;87;22373;-85
2022/09/14 10:15:53;;;;;;;5.37;2.72;;;;;;;19.49;61.25;99799.56;1475170;87;21471;-86
2022/09/14 10:18:21;;;;;;;7.08;2.45;;;;;;;19.49;61.65;99802.25;1476336;87;21500;-85
2022/09/14 10:21:04;;;;;;;6.22;3.00;;;;;;;19.49;62.21;99795.02;1477694;87;21493;-85
2022/09/14 10:23:35;;;;;;;5.80;2.40;;;;;;;19.52;63.82;99795.09;1474016;87;21663;-86
2022/09/14 10:26:18;;;;;;;7.45;2.87;;;;;;;19.59;62.59;99791.80;1470900;88;21500;-85
2022/09/14 10:28:47;;;;;;;10.28;2.67;;;;;;;19.59;62.59;99791.80;1473145;87;21548;-85
2022/09/14 10:31:27;;;;;;;3.77;3.05;;;;;;;19.69;62.72;99785.98;1473287;87;22373;-85
2022/09/14 10:33:56;;;;;;;4.42;3.25;;;;;;;19.77;63.39;99778.45;1468734;87;22587;-85
2022/09/14 10:36:42;;;;;;;4.17;3.00;;;;;;;19.83;63.17;99774.05;1472212;88;21604;-85
2022/09/14 10:39:28;;;;;;;7.95;2.80;;;;;;;19.88;63.08;99781.41;1468681;87;21644;-85
2022/09/14 10:42:18;;;;;;;8.23;2.67;;;;;;;19.90;62.97;99786.05;1471330;87;21478;-85
2022/09/14 10:45:25;;;;;;;3.70;2.80;;;;;;;19.94;62.92;99789.41;1474068;87;22336;-85
2022/09/14 10:48:01;;;;;;;7.90;3.15;;;;;;;19.98;62.97;99785.22;1472913;87;21449;-85
2022/09/14 10:50:54;;;;;;;5.20;2.33;;;;;;;20.00;61.92;99783.67;1458422;88;21485;-86
2022/09/14 10:53:42;;;;;;;5.03;2.95;;;;;;;20.01;61.81;99783.43;1441447;87;21588;-85
2022/09/14 10:56:16;;;;;;;9.63;2.75;;;;;;;20.02;61.47;99790.95;1472404;88;21607;-85
2022/09/14 10:59:23;;;;;;;7.25;2.55;;;;;;;19.97;61.53;99792.17;1474236;88;21493;-85
2022/09/14 11:02:33;;;;;;;13.28;3.95;;;;;;;19.95;61.41;99795.59;1473419;87;21419;-86
2022/09/14 11:05:07;;;;;;;7.07;3.17;;;;;;;19.92;62.07;99793.37;1476518;87;21412;-85
2022/09/14 11:08:03;;;;;;;3.08;2.42;;;;;;;19.86;62.15;99794.27;1479587;87;21700;-86
2022/09/14 11:10:47;;;;;;;9.40;2.72;;;;;;;19.80;61.96;99795.98;1471637;87;21398;-85
2022/09/14 11:13:45;;;;;;;4.60;2.60;;;;;;;19.72;62.31;99799.77;1478785;87;21560;-85
2022/09/14 11:16:46;;;;;;;3.22;2.42;;;;;;;19.63;62.25;99809.13;1476168;88;21411;-83
2022/09/14 11:19:26;;;;;;;6.92;2.75;;;;;;;19.53;62.35;99816.85;1470538;87;22344;-85
2022/09/14 11:22:01;;;;;;;;;;;;;;;19.47;62.73;99821.77;1476858;87;22578;-85
2022/09/14 11:24:42;;;;;;;2.65;2.15;;;;;;;19.37;63.50;99825.77;1472636;87;20304;-85
2022/09/14 11:27:23;;;;;;;;;;;;;;;19.33;63.71;99829.10;1476961;87;21507;-85
2022/09/14 11:30:21;;;;;;;6.72;2.75;;;;;;;19.27;64.93;99825.95;1471908;87;20430;-86
2022/09/14 11:33:06;;;;;;;7.47;2.80;;;;;;;19.22;65.43;99826.63;1476602;88;21404;-85
2022/09/14 11:35:58;;;;;;;7.92;3.22;;;;;;;19.20;66.74;99826.02;1469756;88;22468;-87
2022/09/14 11:38:35;;;;;;;10.65;3.27;;;;;;;19.21;67.50;99824.97;1472384;87;22499;-84
2022/09/14 11:41:28;;;;;;;5.67;3.52;;;;;;;19.22;68.55;99821.27;1474899;88;21434;-85
2022/09/14 11:44:01;;;;;;;7.92;3.30;;;;;;;19.23;69.03;99815.38;1474494;88;21530;-83
2022/09/14 11:46:39;;;;;;;5.25;3.50;;;;;;;19.23;69.23;99807.33;1473623;87;21597;-87
2022/09/14 11:49:28;;;;;;;8.23;3.80;;;;;;;19.19;69.81;99797.56;1473021;88;22366;-87
2022/09/14 11:52:12;;;;;;;5.22;3.27;;;;;;;19.16;72.22;99781.88;1469181;88;22506;-88
2022/09/14 11:54:40;;;;;;;10.13;3.77;;;;;;;19.16;73.08;99778.70;1471022;88;21441;-87
2022/09/14 11:57:06;;;;;;;7.53;3.42;;;;;;;19.19;73.97;99781.47;1471784;88;21464;-88
2022/09/14 11:59:41;;;;;;;3.42;3.12;;;;;;;19.22;74.46;99789.57;1470290;88;21405;-87
2022/09/14 12:02:27;;;;;;;10.40;4.10;;;;;;;19.25;74.62;99802.05;1485183;87;21649;-88